sensor_id;sensor_type;location;lat;lon;timestamp;P1;durP1;ratioP1;P2;durP2;ratioP2
70985;SDS011;58645;43.068;25.610;2023-07-31T00:01:49;3.67;;;2.53;;
70985;SDS011;58645;43.068;25.610;2023-07-31T00:04:15;3.42;;;2.78;;
70985;SDS011;58645;43.068;25.610;2023-07-31T00:06:40;4.10;;;2.67;;
70985;SDS011;58645;43.068;25.610;2023-07-31T00:09:06;2.70;;;2.30;;
70985;SDS011;58645;43.068;25.610;2023-07-31T00:11:32;4.90;;;2.40;;
70985;SDS011;58645;43.068;25.610;2023-07-31T00:13:57;4.95;;;2.60;;
70985;SDS011;58645;43.068;25.610;2023-07-31T00:18:49;5.15;;;3.10;;
70985;SDS011;58645;43.068;25.610;2023-07-31T00:23:40;4.15;;;3.63;;
70985;SDS011;58645;43.068;25.610;2023-07-31T00:26:06;5.60;;;3.97;;
70985;SDS011;58645;43.068;25.610;2023-07-31T00:28:32;5.40;;;3.40;;
70985;SDS011;58645;43.068;25.610;2023-07-31T00:30:57;4.63;;;3.35;;
70985;SDS011;58645;43.068;25.610;2023-07-31T00:33:23;4.30;;;3.58;;
70985;SDS011;58645;43.068;25.610;2023-07-31T00:35:49;5.80;;;3.83;;
70985;SDS011;58645;43.068;25.610;2023-07-31T00:38:14;4.30;;;3.53;;
70985;SDS011;58645;43.068;25.610;2023-07-31T00:40:40;4.28;;;3.88;;
70985;SDS011;58645;43.068;25.610;2023-07-31T00:43:06;4.55;;;4.13;;
70985;SDS011;58645;43.068;25.610;2023-07-31T00:45:32;4.40;;;4.00;;
70985;SDS011;58645;43.068;25.610;2023-07-31T00:50:24;8.10;;;4.80;;
70985;SDS011;58645;43.068;25.610;2023-07-31T00:52:50;5.38;;;4.88;;
70985;SDS011;58645;43.068;25.610;2023-07-31T00:55:16;7.03;;;4.95;;
70985;SDS011;58645;43.068;25.610;2023-07-31T00:57:42;6.40;;;5.30;;
70985;SDS011;58645;43.068;25.610;2023-07-31T01:00:10;6.13;;;4.90;;
70985;SDS011;58645;43.068;25.610;2023-07-31T01:02:36;8.43;;;5.38;;
70985;SDS011;58645;43.068;25.610;2023-07-31T01:05:02;7.05;;;5.68;;
70985;SDS011;58645;43.068;25.610;2023-07-31T01:10:21;6.70;;;6.00;;
70985;SDS011;58645;43.068;25.610;2023-07-31T01:12:51;6.85;;;5.97;;
70985;SDS011;58645;43.068;25.610;2023-07-31T01:15:20;8.48;;;6.38;;
70985;SDS011;58645;43.068;25.610;2023-07-31T01:17:46;8.80;;;7.15;;
70985;SDS011;58645;43.068;25.610;2023-07-31T01:20:12;8.02;;;5.82;;
70985;SDS011;58645;43.068;25.610;2023-07-31T01:28:19;9.77;;;8.45;;
70985;SDS011;58645;43.068;25.610;2023-07-31T01:30:58;10.18;;;9.07;;
70985;SDS011;58645;43.068;25.610;2023-07-31T01:33:27;10.43;;;9.32;;
70985;SDS011;58645;43.068;25.610;2023-07-31T01:35:53;13.73;;;8.65;;
70985;SDS011;58645;43.068;25.610;2023-07-31T01:38:21;9.27;;;8.27;;
70985;SDS011;58645;43.068;25.610;2023-07-31T01:40:50;9.98;;;8.35;;
70985;SDS011;58645;43.068;25.610;2023-07-31T01:43:18;10.38;;;8.82;;
70985;SDS011;58645;43.068;25.610;2023-07-31T01:45:43;13.70;;;9.18;;
70985;SDS011;58645;43.068;25.610;2023-07-31T01:48:09;10.43;;;8.90;;
70985;SDS011;58645;43.068;25.610;2023-07-31T01:50:35;9.43;;;8.43;;
70985;SDS011;58645;43.068;25.610;2023-07-31T01:53:00;12.85;;;9.55;;
70985;SDS011;58645;43.068;25.610;2023-07-31T01:55:26;11.38;;;9.90;;
70985;SDS011;58645;43.068;25.610;2023-07-31T02:00:18;12.75;;;10.55;;
70985;SDS011;58645;43.068;25.610;2023-07-31T02:02:44;11.55;;;10.10;;
70985;SDS011;58645;43.068;25.610;2023-07-31T02:05:09;13.07;;;11.07;;
70985;SDS011;58645;43.068;25.610;2023-07-31T02:10:01;12.27;;;10.95;;
70985;SDS011;58645;43.068;25.610;2023-07-31T02:12:28;11.20;;;10.05;;
70985;SDS011;58645;43.068;25.610;2023-07-31T02:14:56;13.38;;;10.68;;
70985;SDS011;58645;43.068;25.610;2023-07-31T02:17:21;11.25;;;10.05;;
70985;SDS011;58645;43.068;25.610;2023-07-31T02:19:47;12.15;;;10.85;;
70985;SDS011;58645;43.068;25.610;2023-07-31T02:24:39;14.38;;;11.27;;
70985;SDS011;58645;43.068;25.610;2023-07-31T02:27:05;12.70;;;11.40;;
70985;SDS011;58645;43.068;25.610;2023-07-31T02:29:30;14.60;;;12.35;;
70985;SDS011;58645;43.068;25.610;2023-07-31T02:31:56;15.82;;;11.90;;
70985;SDS011;58645;43.068;25.610;2023-07-31T02:34:22;14.38;;;11.55;;
70985;SDS011;58645;43.068;25.610;2023-07-31T02:36:47;14.85;;;12.23;;
70985;SDS011;58645;43.068;25.610;2023-07-31T02:39:13;13.30;;;11.27;;
70985;SDS011;58645;43.068;25.610;2023-07-31T02:41:39;13.20;;;11.80;;
70985;SDS011;58645;43.068;25.610;2023-07-31T02:44:04;14.55;;;11.85;;
70985;SDS011;58645;43.068;25.610;2023-07-31T02:46:30;12.95;;;11.63;;
70985;SDS011;58645;43.068;25.610;2023-07-31T02:51:22;12.60;;;11.30;;
70985;SDS011;58645;43.068;25.610;2023-07-31T02:53:47;15.18;;;12.23;;
70985;SDS011;58645;43.068;25.610;2023-07-31T02:56:13;14.15;;;12.65;;
70985;SDS011;58645;43.068;25.610;2023-07-31T02:58:39;14.50;;;12.50;;
70985;SDS011;58645;43.068;25.610;2023-07-31T03:01:05;14.70;;;13.00;;
70985;SDS011;58645;43.068;25.610;2023-07-31T03:03:30;15.45;;;12.82;;
70985;SDS011;58645;43.068;25.610;2023-07-31T03:05:56;16.88;;;14.38;;
70985;SDS011;58645;43.068;25.610;2023-07-31T03:08:22;14.82;;;13.13;;
70985;SDS011;58645;43.068;25.610;2023-07-31T03:10:48;13.55;;;12.15;;
70985;SDS011;58645;43.068;25.610;2023-07-31T03:13:14;15.18;;;13.43;;
70985;SDS011;58645;43.068;25.610;2023-07-31T03:15:41;16.92;;;15.15;;
70985;SDS011;58645;43.068;25.610;2023-07-31T03:18:08;16.73;;;14.02;;
70985;SDS011;58645;43.068;25.610;2023-07-31T03:20:34;15.75;;;13.77;;
70985;SDS011;58645;43.068;25.610;2023-07-31T03:22:59;18.15;;;14.75;;
70985;SDS011;58645;43.068;25.610;2023-07-31T03:25:25;17.70;;;15.80;;
70985;SDS011;58645;43.068;25.610;2023-07-31T03:27:51;19.55;;;16.60;;
70985;SDS011;58645;43.068;25.610;2023-07-31T03:30:16;18.85;;;15.73;;
70985;SDS011;58645;43.068;25.610;2023-07-31T03:32:42;17.38;;;14.70;;
70985;SDS011;58645;43.068;25.610;2023-07-31T03:35:08;17.50;;;15.27;;
70985;SDS011;58645;43.068;25.610;2023-07-31T03:37:34;17.20;;;14.70;;
70985;SDS011;58645;43.068;25.610;2023-07-31T03:39:59;18.35;;;15.40;;
70985;SDS011;58645;43.068;25.610;2023-07-31T03:42:25;20.10;;;15.57;;
70985;SDS011;58645;43.068;25.610;2023-07-31T03:44:51;18.02;;;14.48;;
70985;SDS011;58645;43.068;25.610;2023-07-31T03:47:17;17.25;;;15.45;;
70985;SDS011;58645;43.068;25.610;2023-07-31T03:49:42;16.90;;;13.55;;
70985;SDS011;58645;43.068;25.610;2023-07-31T03:52:08;17.90;;;15.15;;
70985;SDS011;58645;43.068;25.610;2023-07-31T03:54:34;17.83;;;15.40;;
70985;SDS011;58645;43.068;25.610;2023-07-31T03:56:59;17.75;;;14.02;;
70985;SDS011;58645;43.068;25.610;2023-07-31T03:59:25;16.55;;;14.73;;
70985;SDS011;58645;43.068;25.610;2023-07-31T04:01:51;18.73;;;14.65;;
70985;SDS011;58645;43.068;25.610;2023-07-31T04:04:16;17.38;;;14.85;;
70985;SDS011;58645;43.068;25.610;2023-07-31T04:06:42;17.60;;;14.90;;
70985;SDS011;58645;43.068;25.610;2023-07-31T04:09:08;16.90;;;15.10;;
70985;SDS011;58645;43.068;25.610;2023-07-31T04:11:33;18.95;;;14.77;;
70985;SDS011;58645;43.068;25.610;2023-07-31T04:13:59;15.88;;;14.00;;
70985;SDS011;58645;43.068;25.610;2023-07-31T04:16:25;16.45;;;14.63;;
70985;SDS011;58645;43.068;25.610;2023-07-31T04:18:50;18.17;;;14.85;;
70985;SDS011;58645;43.068;25.610;2023-07-31T04:21:16;15.82;;;14.13;;
70985;SDS011;58645;43.068;25.610;2023-07-31T04:23:42;18.23;;;13.98;;
70985;SDS011;58645;43.068;25.610;2023-07-31T04:26:08;18.27;;;14.20;;
70985;SDS011;58645;43.068;25.610;2023-07-31T04:28:34;16.23;;;14.18;;
70985;SDS011;58645;43.068;25.610;2023-07-31T04:30:59;15.98;;;14.27;;
70985;SDS011;58645;43.068;25.610;2023-07-31T04:33:25;15.48;;;12.68;;
70985;SDS011;58645;43.068;25.610;2023-07-31T04:35:51;14.85;;;13.32;;
70985;SDS011;58645;43.068;25.610;2023-07-31T04:38:21;15.00;;;13.30;;
70985;SDS011;58645;43.068;25.610;2023-07-31T04:40:47;14.45;;;12.77;;
70985;SDS011;58645;43.068;25.610;2023-07-31T04:43:13;15.43;;;12.57;;
70985;SDS011;58645;43.068;25.610;2023-07-31T04:45:38;16.02;;;13.48;;
70985;SDS011;58645;43.068;25.610;2023-07-31T04:50:30;14.52;;;12.18;;
70985;SDS011;58645;43.068;25.610;2023-07-31T04:52:56;13.60;;;12.02;;
70985;SDS011;58645;43.068;25.610;2023-07-31T04:57:47;13.18;;;11.38;;
70985;SDS011;58645;43.068;25.610;2023-07-31T05:00:13;13.40;;;11.68;;
70985;SDS011;58645;43.068;25.610;2023-07-31T05:02:39;13.50;;;11.45;;
70985;SDS011;58645;43.068;25.610;2023-07-31T05:05:04;15.35;;;12.48;;
70985;SDS011;58645;43.068;25.610;2023-07-31T05:07:30;14.82;;;11.82;;
70985;SDS011;58645;43.068;25.610;2023-07-31T05:09:56;13.98;;;11.77;;
70985;SDS011;58645;43.068;25.610;2023-07-31T05:12:22;14.07;;;11.63;;
70985;SDS011;58645;43.068;25.610;2023-07-31T05:14:47;15.40;;;11.90;;
70985;SDS011;58645;43.068;25.610;2023-07-31T05:17:13;13.43;;;11.75;;
70985;SDS011;58645;43.068;25.610;2023-07-31T05:19:39;17.70;;;12.65;;
70985;SDS011;58645;43.068;25.610;2023-07-31T05:22:05;12.13;;;10.63;;
70985;SDS011;58645;43.068;25.610;2023-07-31T05:24:31;12.75;;;11.45;;
70985;SDS011;58645;43.068;25.610;2023-07-31T05:26:57;21.85;;;10.77;;
70985;SDS011;58645;43.068;25.610;2023-07-31T05:29:22;13.75;;;11.70;;
70985;SDS011;58645;43.068;25.610;2023-07-31T05:31:48;13.88;;;12.07;;
70985;SDS011;58645;43.068;25.610;2023-07-31T05:34:14;15.60;;;12.30;;
70985;SDS011;58645;43.068;25.610;2023-07-31T05:39:05;13.13;;;11.73;;
70985;SDS011;58645;43.068;25.610;2023-07-31T05:43:57;23.02;;;16.13;;
70985;SDS011;58645;43.068;25.610;2023-07-31T05:46:22;15.65;;;11.63;;
70985;SDS011;58645;43.068;25.610;2023-07-31T05:48:48;15.43;;;12.35;;
70985;SDS011;58645;43.068;25.610;2023-07-31T05:53:39;12.05;;;10.15;;
70985;SDS011;58645;43.068;25.610;2023-07-31T05:58:31;15.15;;;10.75;;
70985;SDS011;58645;43.068;25.610;2023-07-31T06:00:57;13.50;;;11.32;;
70985;SDS011;58645;43.068;25.610;2023-07-31T06:03:23;12.20;;;10.82;;
70985;SDS011;58645;43.068;25.610;2023-07-31T06:05:48;13.35;;;11.52;;
70985;SDS011;58645;43.068;25.610;2023-07-31T06:08:15;15.10;;;11.02;;
70985;SDS011;58645;43.068;25.610;2023-07-31T06:13:06;12.82;;;10.75;;
70985;SDS011;58645;43.068;25.610;2023-07-31T06:17:57;12.38;;;10.50;;
70985;SDS011;58645;43.068;25.610;2023-07-31T06:20:24;14.23;;;10.43;;
70985;SDS011;58645;43.068;25.610;2023-07-31T06:22:49;12.32;;;10.57;;
70985;SDS011;58645;43.068;25.610;2023-07-31T06:25:15;11.95;;;10.63;;
70985;SDS011;58645;43.068;25.610;2023-07-31T06:30:06;12.52;;;10.50;;
70985;SDS011;58645;43.068;25.610;2023-07-31T06:34:58;14.38;;;10.75;;
70985;SDS011;58645;43.068;25.610;2023-07-31T06:39:49;13.18;;;10.52;;
70985;SDS011;58645;43.068;25.610;2023-07-31T06:44:41;11.30;;;10.10;;
70985;SDS011;58645;43.068;25.610;2023-07-31T06:49:32;12.07;;;10.52;;
70985;SDS011;58645;43.068;25.610;2023-07-31T06:51:57;13.05;;;10.15;;
70985;SDS011;58645;43.068;25.610;2023-07-31T06:56:49;10.43;;;9.32;;
70985;SDS011;58645;43.068;25.610;2023-07-31T06:59:14;10.88;;;9.32;;
70985;SDS011;58645;43.068;25.610;2023-07-31T07:04:06;12.20;;;9.43;;
70985;SDS011;58645;43.068;25.610;2023-07-31T07:08:57;11.60;;;8.75;;
70985;SDS011;58645;43.068;25.610;2023-07-31T07:11:23;10.55;;;9.07;;
70985;SDS011;58645;43.068;25.610;2023-07-31T07:16:14;10.77;;;8.93;;
70985;SDS011;58645;43.068;25.610;2023-07-31T07:21:05;12.40;;;9.30;;
70985;SDS011;58645;43.068;25.610;2023-07-31T07:23:31;10.73;;;8.38;;
70985;SDS011;58645;43.068;25.610;2023-07-31T07:25:57;10.25;;;8.32;;
70985;SDS011;58645;43.068;25.610;2023-07-31T07:30:51;11.02;;;8.32;;
70985;SDS011;58645;43.068;25.610;2023-07-31T07:33:20;12.02;;;8.35;;
70985;SDS011;58645;43.068;25.610;2023-07-31T07:38:13;11.02;;;8.07;;
70985;SDS011;58645;43.068;25.610;2023-07-31T07:40:40;12.32;;;8.80;;
70985;SDS011;58645;43.068;25.610;2023-07-31T07:45:31;10.52;;;7.63;;
70985;SDS011;58645;43.068;25.610;2023-07-31T07:50:24;9.65;;;7.25;;
70985;SDS011;58645;43.068;25.610;2023-07-31T07:55:15;12.63;;;7.15;;
70985;SDS011;58645;43.068;25.610;2023-07-31T07:57:41;8.63;;;6.50;;
70985;SDS011;58645;43.068;25.610;2023-07-31T08:00:09;10.68;;;7.00;;
70985;SDS011;58645;43.068;25.610;2023-07-31T08:02:35;8.32;;;6.97;;
70985;SDS011;58645;43.068;25.610;2023-07-31T08:05:01;8.95;;;6.22;;
70985;SDS011;58645;43.068;25.610;2023-07-31T08:07:27;7.70;;;6.85;;
70985;SDS011;58645;43.068;25.610;2023-07-31T08:09:52;9.55;;;5.63;;
70985;SDS011;58645;43.068;25.610;2023-07-31T08:12:18;7.70;;;5.60;;
70985;SDS011;58645;43.068;25.610;2023-07-31T08:14:44;7.03;;;5.90;;
70985;SDS011;58645;43.068;25.610;2023-07-31T08:17:10;6.78;;;5.90;;
70985;SDS011;58645;43.068;25.610;2023-07-31T08:19:35;7.70;;;6.18;;
70985;SDS011;58645;43.068;25.610;2023-07-31T08:22:01;6.68;;;5.30;;
70985;SDS011;58645;43.068;25.610;2023-07-31T08:24:27;7.10;;;5.75;;
70985;SDS011;58645;43.068;25.610;2023-07-31T08:26:53;8.93;;;5.68;;
70985;SDS011;58645;43.068;25.610;2023-07-31T08:29:18;7.50;;;5.78;;
70985;SDS011;58645;43.068;25.610;2023-07-31T08:31:44;6.53;;;5.40;;
70985;SDS011;58645;43.068;25.610;2023-07-31T08:34:10;7.47;;;5.53;;
70985;SDS011;58645;43.068;25.610;2023-07-31T08:36:35;5.85;;;5.13;;
70985;SDS011;58645;43.068;25.610;2023-07-31T08:39:01;6.05;;;5.05;;
70985;SDS011;58645;43.068;25.610;2023-07-31T08:41:27;6.97;;;4.93;;
70985;SDS011;58645;43.068;25.610;2023-07-31T08:43:52;7.35;;;5.47;;
70985;SDS011;58645;43.068;25.610;2023-07-31T08:46:20;6.80;;;5.65;;
70985;SDS011;58645;43.068;25.610;2023-07-31T08:48:46;6.50;;;5.10;;
70985;SDS011;58645;43.068;25.610;2023-07-31T08:51:13;5.60;;;4.72;;
70985;SDS011;58645;43.068;25.610;2023-07-31T08:53:40;6.25;;;5.22;;
70985;SDS011;58645;43.068;25.610;2023-07-31T08:56:06;6.65;;;5.30;;
70985;SDS011;58645;43.068;25.610;2023-07-31T08:58:32;7.80;;;5.22;;
70985;SDS011;58645;43.068;25.610;2023-07-31T09:01:00;6.55;;;5.38;;
70985;SDS011;58645;43.068;25.610;2023-07-31T09:03:28;8.48;;;6.13;;
70985;SDS011;58645;43.068;25.610;2023-07-31T09:05:59;7.35;;;5.70;;
70985;SDS011;58645;43.068;25.610;2023-07-31T09:08:25;7.35;;;4.70;;
70985;SDS011;58645;43.068;25.610;2023-07-31T09:10:57;6.47;;;5.03;;
70985;SDS011;58645;43.068;25.610;2023-07-31T09:13:25;5.82;;;4.28;;
70985;SDS011;58645;43.068;25.610;2023-07-31T09:15:59;5.18;;;4.10;;
70985;SDS011;58645;43.068;25.610;2023-07-31T09:18:24;5.03;;;3.75;;
70985;SDS011;58645;43.068;25.610;2023-07-31T09:21:00;4.38;;;3.90;;
70985;SDS011;58645;43.068;25.610;2023-07-31T09:23:41;4.63;;;3.83;;
70985;SDS011;58645;43.068;25.610;2023-07-31T09:26:08;5.03;;;3.97;;
70985;SDS011;58645;43.068;25.610;2023-07-31T09:28:34;5.80;;;3.95;;
70985;SDS011;58645;43.068;25.610;2023-07-31T09:31:00;4.72;;;3.88;;
70985;SDS011;58645;43.068;25.610;2023-07-31T09:33:25;4.70;;;3.65;;
70985;SDS011;58645;43.068;25.610;2023-07-31T09:35:51;6.90;;;3.67;;
70985;SDS011;58645;43.068;25.610;2023-07-31T09:38:17;4.53;;;3.80;;
70985;SDS011;58645;43.068;25.610;2023-07-31T09:40:47;4.78;;;3.45;;
70985;SDS011;58645;43.068;25.610;2023-07-31T09:43:16;4.35;;;3.47;;
70985;SDS011;58645;43.068;25.610;2023-07-31T09:45:46;7.90;;;3.70;;
70985;SDS011;58645;43.068;25.610;2023-07-31T09:48:13;4.68;;;3.60;;
70985;SDS011;58645;43.068;25.610;2023-07-31T09:50:43;4.05;;;3.47;;
70985;SDS011;58645;43.068;25.610;2023-07-31T09:53:10;4.93;;;3.40;;
70985;SDS011;58645;43.068;25.610;2023-07-31T09:55:36;4.30;;;3.70;;
70985;SDS011;58645;43.068;25.610;2023-07-31T09:58:04;4.80;;;3.63;;
70985;SDS011;58645;43.068;25.610;2023-07-31T10:00:34;4.10;;;3.28;;
70985;SDS011;58645;43.068;25.610;2023-07-31T10:03:01;3.63;;;3.08;;
70985;SDS011;58645;43.068;25.610;2023-07-31T10:05:30;4.05;;;3.13;;
70985;SDS011;58645;43.068;25.610;2023-07-31T10:08:00;5.20;;;3.38;;
70985;SDS011;58645;43.068;25.610;2023-07-31T10:10:26;4.75;;;3.42;;
70985;SDS011;58645;43.068;25.610;2023-07-31T10:12:53;4.70;;;3.20;;
70985;SDS011;58645;43.068;25.610;2023-07-31T10:15:21;5.43;;;3.20;;
70985;SDS011;58645;43.068;25.610;2023-07-31T10:17:47;4.13;;;3.53;;
70985;SDS011;58645;43.068;25.610;2023-07-31T10:20:15;6.70;;;3.33;;
70985;SDS011;58645;43.068;25.610;2023-07-31T10:22:42;5.68;;;3.67;;
70985;SDS011;58645;43.068;25.610;2023-07-31T10:25:08;5.80;;;3.72;;
70985;SDS011;58645;43.068;25.610;2023-07-31T10:27:35;4.53;;;3.65;;
70985;SDS011;58645;43.068;25.610;2023-07-31T10:30:03;5.93;;;3.45;;
70985;SDS011;58645;43.068;25.610;2023-07-31T10:32:32;6.32;;;3.78;;
70985;SDS011;58645;43.068;25.610;2023-07-31T10:35:00;5.72;;;4.03;;
70985;SDS011;58645;43.068;25.610;2023-07-31T10:37:29;5.25;;;3.90;;
70985;SDS011;58645;43.068;25.610;2023-07-31T10:40:09;6.55;;;3.75;;
70985;SDS011;58645;43.068;25.610;2023-07-31T10:42:49;6.05;;;3.75;;
70985;SDS011;58645;43.068;25.610;2023-07-31T10:45:24;4.43;;;4.03;;
70985;SDS011;58645;43.068;25.610;2023-07-31T10:47:58;5.35;;;4.22;;
70985;SDS011;58645;43.068;25.610;2023-07-31T10:50:29;4.72;;;4.18;;
70985;SDS011;58645;43.068;25.610;2023-07-31T10:52:58;6.00;;;4.55;;
70985;SDS011;58645;43.068;25.610;2023-07-31T10:58:00;4.35;;;3.95;;
70985;SDS011;58645;43.068;25.610;2023-07-31T11:00:31;5.00;;;4.07;;
70985;SDS011;58645;43.068;25.610;2023-07-31T11:08:24;4.70;;;3.83;;
70985;SDS011;58645;43.068;25.610;2023-07-31T11:11:04;4.10;;;3.70;;
70985;SDS011;58645;43.068;25.610;2023-07-31T11:13:51;4.00;;;3.60;;
70985;SDS011;58645;43.068;25.610;2023-07-31T11:16:19;5.70;;;3.92;;
70985;SDS011;58645;43.068;25.610;2023-07-31T11:18:49;4.75;;;4.20;;
70985;SDS011;58645;43.068;25.610;2023-07-31T11:21:20;6.70;;;4.10;;
70985;SDS011;58645;43.068;25.610;2023-07-31T11:23:48;4.30;;;3.80;;
70985;SDS011;58645;43.068;25.610;2023-07-31T11:26:15;4.75;;;3.67;;
70985;SDS011;58645;43.068;25.610;2023-07-31T11:28:41;4.15;;;3.75;;
70985;SDS011;58645;43.068;25.610;2023-07-31T11:31:10;4.32;;;3.63;;
70985;SDS011;58645;43.068;25.610;2023-07-31T11:33:36;5.38;;;3.72;;
70985;SDS011;58645;43.068;25.610;2023-07-31T11:36:01;6.72;;;4.03;;
70985;SDS011;58645;43.068;25.610;2023-07-31T11:38:28;20.88;;;6.80;;
70985;SDS011;58645;43.068;25.610;2023-07-31T11:41:02;9.13;;;4.97;;
70985;SDS011;58645;43.068;25.610;2023-07-31T11:43:29;61.63;;;13.98;;
70985;SDS011;58645;43.068;25.610;2023-07-31T11:45:56;8.60;;;3.97;;
70985;SDS011;58645;43.068;25.610;2023-07-31T11:48:24;5.00;;;3.80;;
70985;SDS011;58645;43.068;25.610;2023-07-31T11:50:53;4.32;;;3.55;;
70985;SDS011;58645;43.068;25.610;2023-07-31T11:53:26;4.20;;;3.47;;
70985;SDS011;58645;43.068;25.610;2023-07-31T11:56:02;4.30;;;3.70;;
70985;SDS011;58645;43.068;25.610;2023-07-31T11:58:31;4.60;;;3.75;;
70985;SDS011;58645;43.068;25.610;2023-07-31T12:00:59;5.38;;;4.05;;
70985;SDS011;58645;43.068;25.610;2023-07-31T12:03:26;4.65;;;3.65;;
70985;SDS011;58645;43.068;25.610;2023-07-31T12:05:55;5.68;;;4.07;;
70985;SDS011;58645;43.068;25.610;2023-07-31T12:08:21;4.68;;;3.97;;
70985;SDS011;58645;43.068;25.610;2023-07-31T12:10:52;4.43;;;3.95;;
70985;SDS011;58645;43.068;25.610;2023-07-31T12:13:22;4.00;;;3.60;;
70985;SDS011;58645;43.068;25.610;2023-07-31T12:15:53;4.47;;;3.58;;
70985;SDS011;58645;43.068;25.610;2023-07-31T12:18:23;6.28;;;4.32;;
70985;SDS011;58645;43.068;25.610;2023-07-31T12:20:55;4.07;;;3.67;;
70985;SDS011;58645;43.068;25.610;2023-07-31T12:23:24;5.32;;;4.03;;
70985;SDS011;58645;43.068;25.610;2023-07-31T12:28:38;4.15;;;3.75;;
70985;SDS011;58645;43.068;25.610;2023-07-31T12:31:05;4.75;;;3.88;;
70985;SDS011;58645;43.068;25.610;2023-07-31T12:33:36;5.63;;;4.22;;
70985;SDS011;58645;43.068;25.610;2023-07-31T12:36:04;4.13;;;3.72;;
70985;SDS011;58645;43.068;25.610;2023-07-31T12:38:34;4.38;;;3.85;;
70985;SDS011;58645;43.068;25.610;2023-07-31T12:41:00;4.90;;;3.65;;
70985;SDS011;58645;43.068;25.610;2023-07-31T12:43:26;4.07;;;3.67;;
70985;SDS011;58645;43.068;25.610;2023-07-31T12:45:53;5.15;;;3.90;;
70985;SDS011;58645;43.068;25.610;2023-07-31T12:48:20;4.25;;;3.72;;
70985;SDS011;58645;43.068;25.610;2023-07-31T12:50:46;6.20;;;4.30;;
70985;SDS011;58645;43.068;25.610;2023-07-31T12:53:11;4.75;;;4.05;;
70985;SDS011;58645;43.068;25.610;2023-07-31T12:55:40;4.22;;;3.83;;
70985;SDS011;58645;43.068;25.610;2023-07-31T12:58:05;4.82;;;4.22;;
70985;SDS011;58645;43.068;25.610;2023-07-31T13:00:31;4.57;;;4.18;;
70985;SDS011;58645;43.068;25.610;2023-07-31T13:02:57;4.05;;;3.65;;
70985;SDS011;58645;43.068;25.610;2023-07-31T13:05:22;4.18;;;3.78;;
70985;SDS011;58645;43.068;25.610;2023-07-31T13:07:48;4.38;;;3.80;;
70985;SDS011;58645;43.068;25.610;2023-07-31T13:10:14;3.95;;;3.50;;
70985;SDS011;58645;43.068;25.610;2023-07-31T13:12:40;9.27;;;4.38;;
70985;SDS011;58645;43.068;25.610;2023-07-31T13:15:06;4.40;;;4.00;;
70985;SDS011;58645;43.068;25.610;2023-07-31T13:17:32;5.78;;;3.65;;
70985;SDS011;58645;43.068;25.610;2023-07-31T13:19:58;4.32;;;3.38;;
70985;SDS011;58645;43.068;25.610;2023-07-31T13:22:24;3.85;;;3.45;;
70985;SDS011;58645;43.068;25.610;2023-07-31T13:24:50;5.07;;;3.38;;
70985;SDS011;58645;43.068;25.610;2023-07-31T13:27:16;4.07;;;3.78;;
70985;SDS011;58645;43.068;25.610;2023-07-31T13:29:44;4.63;;;3.53;;
70985;SDS011;58645;43.068;25.610;2023-07-31T13:32:17;3.90;;;3.50;;
70985;SDS011;58645;43.068;25.610;2023-07-31T13:34:44;4.28;;;3.88;;
70985;SDS011;58645;43.068;25.610;2023-07-31T13:37:10;4.57;;;3.95;;
70985;SDS011;58645;43.068;25.610;2023-07-31T13:39:36;4.15;;;3.75;;
70985;SDS011;58645;43.068;25.610;2023-07-31T13:42:05;4.13;;;3.67;;
70985;SDS011;58645;43.068;25.610;2023-07-31T13:44:33;4.00;;;3.63;;
70985;SDS011;58645;43.068;25.610;2023-07-31T13:47:00;5.15;;;4.05;;
70985;SDS011;58645;43.068;25.610;2023-07-31T13:49:26;5.63;;;4.43;;
70985;SDS011;58645;43.068;25.610;2023-07-31T13:51:52;6.00;;;4.57;;
70985;SDS011;58645;43.068;25.610;2023-07-31T13:54:17;5.20;;;4.22;;
70985;SDS011;58645;43.068;25.610;2023-07-31T13:56:43;5.32;;;4.78;;
70985;SDS011;58645;43.068;25.610;2023-07-31T13:59:09;5.15;;;4.60;;
70985;SDS011;58645;43.068;25.610;2023-07-31T14:01:35;5.40;;;4.55;;
70985;SDS011;58645;43.068;25.610;2023-07-31T14:04:01;5.13;;;4.20;;
70985;SDS011;58645;43.068;25.610;2023-07-31T14:06:27;4.18;;;3.78;;
70985;SDS011;58645;43.068;25.610;2023-07-31T14:08:53;4.95;;;4.45;;
70985;SDS011;58645;43.068;25.610;2023-07-31T14:11:20;5.03;;;4.45;;
70985;SDS011;58645;43.068;25.610;2023-07-31T14:13:47;6.68;;;4.95;;
70985;SDS011;58645;43.068;25.610;2023-07-31T14:16:12;5.63;;;4.32;;
70985;SDS011;58645;43.068;25.610;2023-07-31T14:18:38;5.00;;;4.57;;
70985;SDS011;58645;43.068;25.610;2023-07-31T14:21:04;5.60;;;4.93;;
70985;SDS011;58645;43.068;25.610;2023-07-31T14:23:30;7.28;;;5.43;;
70985;SDS011;58645;43.068;25.610;2023-07-31T14:25:55;6.50;;;5.38;;
70985;SDS011;58645;43.068;25.610;2023-07-31T14:28:21;7.22;;;5.22;;
70985;SDS011;58645;43.068;25.610;2023-07-31T14:30:47;6.47;;;5.20;;
70985;SDS011;58645;43.068;25.610;2023-07-31T14:33:12;6.15;;;4.82;;
70985;SDS011;58645;43.068;25.610;2023-07-31T14:35:38;7.28;;;5.53;;
70985;SDS011;58645;43.068;25.610;2023-07-31T14:38:04;6.30;;;4.93;;
70985;SDS011;58645;43.068;25.610;2023-07-31T14:40:29;7.55;;;5.68;;
70985;SDS011;58645;43.068;25.610;2023-07-31T14:42:55;5.93;;;5.32;;
70985;SDS011;58645;43.068;25.610;2023-07-31T14:45:21;5.65;;;5.05;;
70985;SDS011;58645;43.068;25.610;2023-07-31T14:47:47;7.15;;;5.38;;
70985;SDS011;58645;43.068;25.610;2023-07-31T14:50:12;6.63;;;5.50;;
70985;SDS011;58645;43.068;25.610;2023-07-31T14:52:38;11.40;;;6.07;;
70985;SDS011;58645;43.068;25.610;2023-07-31T14:55:04;10.77;;;6.55;;
70985;SDS011;58645;43.068;25.610;2023-07-31T14:57:30;9.73;;;6.13;;
70985;SDS011;58645;43.068;25.610;2023-07-31T14:59:56;8.32;;;5.40;;
70985;SDS011;58645;43.068;25.610;2023-07-31T15:02:21;5.72;;;5.05;;
70985;SDS011;58645;43.068;25.610;2023-07-31T15:04:47;6.68;;;5.22;;
70985;SDS011;58645;43.068;25.610;2023-07-31T15:07:13;6.93;;;5.65;;
70985;SDS011;58645;43.068;25.610;2023-07-31T15:09:39;5.57;;;5.05;;
70985;SDS011;58645;43.068;25.610;2023-07-31T15:12:05;6.40;;;5.55;;
70985;SDS011;58645;43.068;25.610;2023-07-31T15:14:31;7.20;;;5.65;;
70985;SDS011;58645;43.068;25.610;2023-07-31T15:16:57;6.50;;;5.63;;
70985;SDS011;58645;43.068;25.610;2023-07-31T15:19:22;20.52;;;8.52;;
70985;SDS011;58645;43.068;25.610;2023-07-31T15:21:49;13.73;;;9.05;;
70985;SDS011;58645;43.068;25.610;2023-07-31T15:24:15;30.52;;;11.75;;
70985;SDS011;58645;43.068;25.610;2023-07-31T15:26:41;11.80;;;8.80;;
70985;SDS011;58645;43.068;25.610;2023-07-31T15:29:09;14.38;;;9.80;;
70985;SDS011;58645;43.068;25.610;2023-07-31T15:31:39;13.00;;;10.23;;
70985;SDS011;58645;43.068;25.610;2023-07-31T15:34:05;14.27;;;10.23;;
70985;SDS011;58645;43.068;25.610;2023-07-31T15:38:57;16.13;;;11.27;;
70985;SDS011;58645;43.068;25.610;2023-07-31T15:43:49;14.23;;;9.32;;
70985;SDS011;58645;43.068;25.610;2023-07-31T15:48:40;13.02;;;9.75;;
70985;SDS011;58645;43.068;25.610;2023-07-31T15:53:32;14.77;;;10.68;;
70985;SDS011;58645;43.068;25.610;2023-07-31T15:58:24;16.02;;;11.38;;
70985;SDS011;58645;43.068;25.610;2023-07-31T16:03:15;18.00;;;11.57;;
70985;SDS011;58645;43.068;25.610;2023-07-31T16:08:09;18.52;;;13.07;;
70985;SDS011;58645;43.068;25.610;2023-07-31T16:10:35;17.63;;;13.05;;
70985;SDS011;58645;43.068;25.610;2023-07-31T16:15:26;13.82;;;11.20;;